Time;durP1;ratioP1;P1;durP2;ratioP2;P2;SDS_P1;SDS_P2;PMS_P1;PMS_P2;Temp;Humidity;BMP_temperature;BMP_pressure;BME280_temperature;BME280_humidity;BME280_pressure;Samples;Min_cycle;Max_cycle;Signal;HPM_P1;HPM_P2
2023/09/13 00:01:56;;;;;;;;;;;18.20;1.00;;;;;;5116457;27;19945;-72
2023/09/13 00:04:21;;;;;;;;;;;18.20;1.00;;;;;;5095712;28;19923;-72
2023/09/13 00:06:47;;;;;;;;;;;18.20;1.00;;;;;;5114078;27;20385;-72
2023/09/13 00:09:13;;;;;;;;;;;18.20;1.00;;;;;;5114439;27;20339;-72
2023/09/13 00:11:39;;;;;;;;;;;18.10;1.00;;;;;;5110335;28;19930;-72
2023/09/13 00:14:04;;;;;;;;;;;18.10;1.00;;;;;;5109617;28;19927;-73
2023/09/13 00:16:30;;;;;;;;;;;18.10;1.00;;;;;;5076332;28;20385;-72
2023/09/13 00:18:56;;;;;;;;;;;18.10;1.00;;;;;;5111659;27;19924;-73
2023/09/13 00:21:21;;;;;;;;;;;18.10;1.00;;;;;;5077863;28;20034;-73
2023/09/13 00:23:47;;;;;;;;;;;18.00;1.00;;;;;;5111942;28;19923;-72
2023/09/13 00:26:13;;;;;;;;;;;18.00;1.00;;;;;;5095149;28;20319;-72
2023/09/13 00:28:38;;;;;;;;;;;18.00;1.00;;;;;;5112391;28;19934;-72
2023/09/13 00:31:04;;;;;;;;;;;17.90;1.00;;;;;;5114133;27;19924;-72
2023/09/13 00:33:30;;;;;;;;;;;17.90;1.00;;;;;;5112891;28;19930;-72
2023/09/13 00:35:56;;;;;;;;;;;17.90;1.00;;;;;;5115312;28;19923;-72
2023/09/13 00:38:21;;;;;;;;;;;17.90;1.00;;;;;;5112775;28;20003;-72
2023/09/13 00:40:47;;;;;;;;;;;17.90;1.00;;;;;;5112524;28;20027;-73
2023/09/13 00:43:12;;;;;;;;;;;17.90;1.00;;;;;;5112132;28;19923;-73
2023/09/13 00:45:38;;;;;;;;;;;17.90;1.00;;;;;;5114943;28;20293;-73
2023/09/13 00:48:04;;;;;;;;;;;17.90;1.00;;;;;;5112303;28;20362;-72
2023/09/13 00:50:30;;;;;;;;;;;17.90;1.00;;;;;;5116688;28;19967;-72
2023/09/13 00:52:57;;;;;;;;;;;17.90;1.00;;;;;;5113565;28;19930;-73
2023/09/13 00:55:22;;;;;;;;;;;17.90;1.00;;;;;;5115466;28;20385;-72
2023/09/13 00:57:49;;;;;;;;;;;17.90;1.00;;;;;;5113790;28;19928;-72
2023/09/13 01:00:15;;;;;;;;;;;17.90;1.00;;;;;;5115751;28;19924;-72
2023/09/13 01:02:44;;;;;;;;;;;17.90;1.00;;;;;;5113519;28;19931;-72
2023/09/13 01:05:11;;;;;;;;;;;17.90;1.00;;;;;;5117417;28;19970;-72
2023/09/13 01:07:40;;;;;;;;;;;17.90;1.00;;;;;;5114368;28;20001;-72
2023/09/13 01:10:09;;;;;;;;;;;17.90;1.00;;;;;;5113693;28;19923;-72
2023/09/13 01:12:35;;;;;;;;;;;17.90;1.00;;;;;;5109483;28;19934;-73
2023/09/13 01:15:02;;;;;;;;;;;17.90;1.00;;;;;;5110300;28;19923;-72
2023/09/13 01:17:39;;;;;;;;;;;17.90;1.00;;;;;;5109769;28;19930;-72
2023/09/13 01:20:12;;;;;;;;;;;18.00;1.00;;;;;;5109235;28;20008;-72
2023/09/13 01:22:55;;;;;;;;;;;17.90;1.00;;;;;;5109690;28;19934;-72
2023/09/13 01:25:39;;;;;;;;;;;18.00;1.00;;;;;;5111386;28;19955;-72
2023/09/13 01:28:11;;;;;;;;;;;18.00;1.00;;;;;;5113099;27;19931;-72
2023/09/13 01:30:37;;;;;;;;;;;18.00;1.00;;;;;;5113113;28;19985;-72
2023/09/13 01:33:03;;;;;;;;;;;17.90;1.00;;;;;;5112998;27;19924;-72
2023/09/13 01:35:28;;;;;;;;;;;17.90;1.00;;;;;;5113959;27;20447;-72
2023/09/13 01:37:54;;;;;;;;;;;17.90;1.00;;;;;;5113742;27;19962;-72
2023/09/13 01:40:20;;;;;;;;;;;17.90;1.00;;;;;;5114802;27;20006;-73
2023/09/13 01:42:46;;;;;;;;;;;17.90;1.00;;;;;;5113993;27;19934;-72
2023/09/13 01:45:13;;;;;;;;;;;17.90;1.00;;;;;;5114790;27;19923;-72
2023/09/13 01:47:40;;;;;;;;;;;17.90;1.00;;;;;;5112918;28;19924;-72
2023/09/13 01:50:07;;;;;;;;;;;17.80;1.00;;;;;;5115167;27;19923;-72
2023/09/13 01:52:32;;;;;;;;;;;17.80;1.00;;;;;;5113356;27;19963;-73
2023/09/13 01:54:58;;;;;;;;;;;17.80;1.00;;;;;;5113817;27;19970;-72
2023/09/13 01:57:23;;;;;;;;;;;17.80;1.00;;;;;;5112377;28;20030;-72
2023/09/13 01:59:49;;;;;;;;;;;17.70;1.00;;;;;;5112039;27;20415;-72
2023/09/13 02:02:15;;;;;;;;;;;17.80;1.00;;;;;;5112781;28;19934;-72
2023/09/13 02:04:40;;;;;;;;;;;17.70;1.00;;;;;;5095236;27;20449;-72
2023/09/13 02:07:06;;;;;;;;;;;17.70;1.00;;;;;;5112896;27;20015;-72
2023/09/13 02:09:31;;;;;;;;;;;17.70;1.00;;;;;;5113462;27;19930;-72
2023/09/13 02:11:57;;;;;;;;;;;17.70;1.00;;;;;;5112930;27;20368;-72
2023/09/13 02:14:22;;;;;;;;;;;17.70;1.00;;;;;;5112645;27;19924;-72
2023/09/13 02:16:48;;;;;;;;;;;17.70;1.00;;;;;;5112537;28;19983;-73
2023/09/13 02:19:14;;;;;;;;;;;17.70;1.00;;;;;;5096225;27;20041;-72
2023/09/13 02:21:40;;;;;;;;;;;17.70;1.00;;;;;;5112345;28;20010;-72
2023/09/13 02:24:06;;;;;;;;;;;17.70;1.00;;;;;;5111726;28;20618;-72
2023/09/13 02:26:31;;;;;;;;;;;17.70;1.00;;;;;;5112681;28;19928;-72
2023/09/13 02:28:57;;;;;;;;;;;17.60;1.00;;;;;;5113020;27;20282;-72
2023/09/13 02:31:23;;;;;;;;;;;17.60;1.00;;;;;;5112205;27;19923;-73
2023/09/13 02:33:49;;;;;;;;;;;17.70;1.00;;;;;;5094118;27;19931;-72
2023/09/13 02:36:15;;;;;;;;;;;17.70;1.00;;;;;;5111895;27;20616;-72
2023/09/13 02:38:40;;;;;;;;;;;17.70;1.00;;;;;;5112792;27;19971;-72
2023/09/13 02:41:06;;;;;;;;;;;17.70;1.00;;;;;;5113006;27;19950;-72
2023/09/13 02:43:31;;;;;;;;;;;17.60;1.00;;;;;;5111723;27;19932;-72
2023/09/13 02:45:57;;;;;;;;;;;17.60;1.00;;;;;;5112708;27;19982;-72
2023/09/13 02:48:22;;;;;;;;;;;17.60;1.00;;;;;;5112030;27;19927;-72
2023/09/13 02:50:48;;;;;;;;;;;17.60;1.00;;;;;;5112784;27;20099;-72
2023/09/13 02:53:13;;;;;;;;;;;17.60;1.00;;;;;;5113618;27;19924;-72
2023/09/13 02:55:39;;;;;;;;;;;17.60;1.00;;;;;;5112573;27;20401;-72
2023/09/13 02:58:05;;;;;;;;;;;17.60;1.00;;;;;;5110061;27;19935;-72
2023/09/13 03:00:31;;;;;;;;;;;17.60;1.00;;;;;;5108594;28;19932;-73
2023/09/13 03:02:58;;;;;;;;;;;17.50;1.00;;;;;;5111504;28;19931;-72
2023/09/13 03:05:23;;;;;;;;;;;17.50;1.00;;;;;;5093265;28;19931;-72
2023/09/13 03:07:49;;;;;;;;;;;17.50;1.00;;;;;;5116650;27;20325;-72
2023/09/13 03:10:14;;;;;;;;;;;17.50;1.00;;;;;;5098135;28;19925;-72
2023/09/13 03:12:40;;;;;;;;;;;17.50;1.00;;;;;;5092932;28;19924;-72
2023/09/13 03:15:05;;;;;;;;;;;17.50;1.00;;;;;;5124810;27;20301;-72
2023/09/13 03:17:31;;;;;;;;;;;17.50;1.00;;;;;;5110442;28;20442;-72
2023/09/13 03:19:56;;;;;;;;;;;17.40;1.00;;;;;;5110940;28;19934;-72
2023/09/13 03:22:22;;;;;;;;;;;17.40;1.00;;;;;;5110795;27;20431;-72
2023/09/13 03:24:48;;;;;;;;;;;17.40;1.00;;;;;;5111539;28;19928;-72
2023/09/13 03:27:13;;;;;;;;;;;17.30;1.00;;;;;;5110992;28;19931;-72
2023/09/13 03:29:39;;;;;;;;;;;17.30;1.00;;;;;;5092698;28;19924;-72
2023/09/13 03:32:05;;;;;;;;;;;17.20;1.00;;;;;;5110619;28;19971;-72
2023/09/13 03:34:30;;;;;;;;;;;17.20;1.00;;;;;;5106925;28;20397;-72
2023/09/13 03:36:56;;;;;;;;;;;17.10;1.00;;;;;;5101431;28;19935;-72
2023/09/13 03:39:21;;;;;;;;;;;17.10;1.00;;;;;;5110657;28;19924;-72
2023/09/13 03:41:47;;;;;;;;;;;17.00;1.00;;;;;;5110624;28;20289;-72
2023/09/13 03:44:12;;;;;;;;;;;17.00;1.00;;;;;;5111738;27;19931;-72
2023/09/13 03:46:38;;;;;;;;;;;17.00;1.00;;;;;;5110597;28;20351;-72
2023/09/13 03:49:03;;;;;;;;;;;16.90;1.00;;;;;;5075659;28;19931;-72
2023/09/13 03:51:29;;;;;;;;;;;16.90;1.00;;;;;;5110677;27;19928;-72
2023/09/13 03:53:55;;;;;;;;;;;16.90;1.00;;;;;;5110878;28;19924;-73
2023/09/13 03:56:20;;;;;;;;;;;16.90;1.00;;;;;;5110620;28;19928;-72
2023/09/13 03:58:46;;;;;;;;;;;16.90;1.00;;;;;;5111039;28;19924;-72
2023/09/13 04:01:11;;;;;;;;;;;16.80;1.00;;;;;;5111310;27;20101;-72
2023/09/13 04:03:37;;;;;;;;;;;16.90;1.00;;;;;;5111398;27;20022;-72
2023/09/13 04:06:03;;;;;;;;;;;16.80;1.00;;;;;;5110710;27;19924;-72
2023/09/13 04:08:29;;;;;;;;;;;16.80;1.00;;;;;;5079060;28;20531;-72
2023/09/13 04:10:54;;;;;;;;;;;16.80;1.00;;;;;;5120055;27;20003;-72
2023/09/13 04:13:20;;;;;;;;;;;16.80;1.00;;;;;;5126785;27;19931;-72
2023/09/13 04:15:46;;;;;;;;;;;16.80;1.00;;;;;;5110916;27;20297;-72
2023/09/13 04:18:11;;;;;;;;;;;16.70;1.00;;;;;;5111032;28;19931;-72
2023/09/13 04:20:37;;;;;;;;;;;16.80;1.00;;;;;;5110117;28;20001;-72
2023/09/13 04:23:03;;;;;;;;;;;16.70;1.00;;;;;;5110509;28;20390;-72
2023/09/13 04:25:28;;;;;;;;;;;16.70;1.00;;;;;;5109857;28;20321;-72
2023/09/13 04:27:54;;;;;;;;;;;16.70;1.00;;;;;;5123269;27;19924;-72
2023/09/13 04:30:19;;;;;;;;;;;16.70;1.00;;;;;;5118287;27;20575;-73
2023/09/13 04:32:47;;;;;;;;;;;16.70;1.00;;;;;;5113492;27;20018;-72
2023/09/13 04:35:12;;;;;;;;;;;16.70;1.00;;;;;;5109307;28;19932;-72
2023/09/13 04:37:38;;;;;;;;;;;16.70;1.00;;;;;;5090670;28;20005;-72
2023/09/13 04:40:07;;;;;;;;;;;16.70;1.00;;;;;;5110630;28;19924;-72
2023/09/13 04:42:37;;;;;;;;;;;16.60;1.00;;;;;;5110883;28;20346;-72
2023/09/13 04:45:03;;;;;;;;;;;16.70;1.00;;;;;;5092571;28;20484;-72
2023/09/13 04:47:29;;;;;;;;;;;16.60;1.00;;;;;;5110869;28;19932;-72
2023/09/13 04:49:54;;;;;;;;;;;16.60;1.00;;;;;;5111838;28;19930;-72
2023/09/13 04:52:20;;;;;;;;;;;16.60;1.00;;;;;;5112938;28;19927;-72
2023/09/13 04:54:45;;;;;;;;;;;16.60;1.00;;;;;;5112654;28;19976;-72
2023/09/13 04:57:12;;;;;;;;;;;16.60;1.00;;;;;;5112571;28;19985;-72
2023/09/13 04:59:42;;;;;;;;;;;16.50;1.00;;;;;;5111480;28;19975;-72
2023/09/13 05:02:09;;;;;;;;;;;16.50;1.00;;;;;;5118076;27;19946;-72
2023/09/13 05:04:34;;;;;;;;;;;16.40;1.00;;;;;;5114020;28;20001;-72
2023/09/13 05:07:00;;;;;;;;;;;16.30;1.00;;;;;;5113796;27;19942;-72
2023/09/13 05:09:25;;;;;;;;;;;16.30;1.00;;;;;;5113491;28;20355;-72
2023/09/13 05:11:51;;;;;;;;;;;16.20;1.00;;;;;;5113879;27;19923;-72
2023/09/13 05:14:16;;;;;;;;;;;16.20;1.00;;;;;;5114203;27;19924;-72
2023/09/13 05:16:42;;;;;;;;;;;16.00;1.00;;;;;;5113749;28;19931;-72
2023/09/13 05:19:07;;;;;;;;;;;15.90;1.00;;;;;;5113492;28;19930;-72
2023/09/13 05:21:33;;;;;;;;;;;15.90;1.00;;;;;;5114245;28;20309;-71
2023/09/13 05:23:59;;;;;;;;;;;15.80;1.00;;;;;;5113301;27;19971;-72
2023/09/13 05:26:24;;;;;;;;;;;15.70;1.00;;;;;;5113127;27;20657;-69
2023/09/13 05:28:50;;;;;;;;;;;15.70;1.00;;;;;;5112725;28;19923;-69
2023/09/13 05:31:15;;;;;;;;;;;15.60;1.00;;;;;;5113193;27;20365;-71
2023/09/13 05:33:41;;;;;;;;;;;15.60;1.00;;;;;;5113225;27;19934;-71
2023/09/13 05:36:10;;;;;;;;;;;15.60;1.00;;;;;;5112364;28;20376;-72
2023/09/13 05:38:35;;;;;;;;;;;15.60;1.00;;;;;;5113793;27;19924;-72
2023/09/13 05:41:05;;;;;;;;;;;15.60;1.00;;;;;;5095172;28;20240;-72
2023/09/13 05:43:30;;;;;;;;;;;15.60;1.00;;;;;;5112925;28;19975;-72
2023/09/13 05:45:56;;;;;;;;;;;15.50;1.00;;;;;;5113326;27;20011;-72
2023/09/13 05:48:21;;;;;;;;;;;15.50;1.00;;;;;;5113318;27;20381;-72
2023/09/13 05:50:47;;;;;;;;;;;15.50;1.00;;;;;;5113687;27;19924;-72
2023/09/13 05:53:14;;;;;;;;;;;15.50;1.00;;;;;;5113348;28;19924;-72
2023/09/13 05:55:39;;;;;;;;;;;15.50;1.00;;;;;;5095804;28;20019;-72
2023/09/13 05:58:04;;;;;;;;;;;15.50;1.00;;;;;;5113185;27;19993;-72
2023/09/13 06:00:30;;;;;;;;;;;15.50;1.00;;;;;;5113113;27;20301;-72
2023/09/13 06:02:56;;;;;;;;;;;15.50;1.00;;;;;;5113640;27;19930;-72
2023/09/13 06:05:21;;;;;;;;;;;15.50;1.00;;;;;;5112758;27;20385;-72
2023/09/13 06:07:47;;;;;;;;;;;15.50;1.00;;;;;;5112764;27;19976;-72
2023/09/13 06:10:12;;;;;;;;;;;15.50;1.00;;;;;;5112557;28;19967;-72
2023/09/13 06:12:38;;;;;;;;;;;15.50;1.00;;;;;;5111181;27;19927;-72
2023/09/13 06:15:03;;;;;;;;;;;15.40;1.00;;;;;;5112573;28;19955;-72
2023/09/13 06:17:29;;;;;;;;;;;15.40;1.00;;;;;;5112726;27;19924;-71
2023/09/13 06:19:54;;;;;;;;;;;15.40;1.00;;;;;;5112157;27;19984;-72
2023/09/13 06:22:20;;;;;;;;;;;15.40;1.00;;;;;;5077146;28;19981;-71
2023/09/13 06:24:45;;;;;;;;;;;15.40;1.00;;;;;;5112530;28;19924;-72
2023/09/13 06:27:11;;;;;;;;;;;15.40;1.00;;;;;;5112749;27;19973;-72
2023/09/13 06:29:36;;;;;;;;;;;15.40;1.00;;;;;;5112630;27;20002;-72
2023/09/13 06:32:06;;;;;;;;;;;15.40;1.00;;;;;;5094333;28;19931;-72
2023/09/13 06:34:32;;;;;;;;;;;15.40;1.00;;;;;;5112643;28;19923;-72
2023/09/13 06:36:58;;;;;;;;;;;15.40;1.00;;;;;;5112391;27;19931;-72
2023/09/13 06:39:23;;;;;;;;;;;15.40;1.00;;;;;;5112409;27;19924;-72
2023/09/13 06:41:49;;;;;;;;;;;15.40;1.00;;;;;;5112176;27;19924;-72
2023/09/13 06:44:14;;;;;;;;;;;15.40;1.00;;;;;;5112693;28;19923;-72
2023/09/13 06:46:40;;;;;;;;;;;15.50;1.00;;;;;;5111592;28;19928;-71
2023/09/13 06:49:06;;;;;;;;;;;15.50;1.00;;;;;;5113026;27;19923;-72
2023/09/13 06:51:32;;;;;;;;;;;15.50;1.00;;;;;;5113087;27;19952;-72
2023/09/13 06:53:58;;;;;;;;;;;15.50;1.00;;;;;;5113807;27;19923;-72
2023/09/13 06:56:23;;;;;;;;;;;15.50;1.00;;;;;;5093518;28;19947;-72
2023/09/13 06:58:49;;;;;;;;;;;15.60;1.00;;;;;;5113962;27;19989;-72
2023/09/13 07:01:14;;;;;;;;;;;15.60;1.00;;;;;;5094578;28;19924;-73
2023/09/13 07:03:40;;;;;;;;;;;15.50;1.00;;;;;;5113720;27;20397;-72
2023/09/13 07:06:05;;;;;;;;;;;15.50;1.00;;;;;;5109286;28;19931;-72
2023/09/13 07:08:31;;;;;;;;;;;15.50;1.00;;;;;;5093069;28;19932;-72
2023/09/13 07:10:57;;;;;;;;;;;15.50;1.00;;;;;;5111496;28;19963;-72
2023/09/13 07:13:22;;;;;;;;;;;15.50;1.00;;;;;;5113900;27;19931;-72
2023/09/13 07:15:48;;;;;;;;;;;15.60;1.00;;;;;;5122555;27;20384;-72
2023/09/13 07:18:14;;;;;;;;;;;15.60;1.00;;;;;;5111119;28;20394;-72
2023/09/13 07:20:40;;;;;;;;;;;15.60;1.00;;;;;;5111293;28;19993;-72
2023/09/13 07:23:05;;;;;;;;;;;15.60;1.00;;;;;;5110276;28;20397;-72
2023/09/13 07:25:31;;;;;;;;;;;15.60;1.00;;;;;;5111355;28;19924;-73
2023/09/13 07:27:57;;;;;;;;;;;15.60;1.00;;;;;;5110692;28;19982;-72
2023/09/13 07:30:23;;;;;;;;;;;15.70;1.00;;;;;;5111096;28;19931;-72
2023/09/13 07:32:49;;;;;;;;;;;15.70;1.00;;;;;;5110709;28;19931;-72
2023/09/13 07:35:14;;;;;;;;;;;15.80;1.00;;;;;;5110658;28;19930;-73
2023/09/13 07:37:40;;;;;;;;;;;15.80;1.00;;;;;;5093007;27;19932;-73
2023/09/13 07:40:06;;;;;;;;;;;15.90;1.00;;;;;;5111461;28;19924;-73
2023/09/13 07:42:31;;;;;;;;;;;16.00;1.00;;;;;;5110696;27;20345;-72
2023/09/13 07:44:57;;;;;;;;;;;16.00;1.00;;;;;;5111647;27;19933;-72
2023/09/13 07:47:22;;;;;;;;;;;16.10;1.00;;;;;;5110598;27;19928;-72
2023/09/13 07:49:48;;;;;;;;;;;16.10;1.00;;;;;;5111623;27;20097;-72
2023/09/13 07:52:14;;;;;;;;;;;16.10;1.00;;;;;;5112902;27;19923;-73
2023/09/13 07:54:40;;;;;;;;;;;16.20;1.00;;;;;;5111955;27;20452;-72
2023/09/13 07:57:06;;;;;;;;;;;16.20;1.00;;;;;;5111715;27;19931;-73
2023/09/13 07:59:31;;;;;;;;;;;16.20;1.00;;;;;;5093819;28;20057;-73
2023/09/13 08:01:59;;;;;;;;;;;16.20;1.00;;;;;;5113403;27;20416;-73
2023/09/13 08:04:24;;;;;;;;;;;16.20;1.00;;;;;;5111954;27;19970;-72
2023/09/13 08:06:50;;;;;;;;;;;16.20;1.00;;;;;;5111868;27;20022;-73
2023/09/13 08:09:15;;;;;;;;;;;16.20;1.00;;;;;;5091849;28;19923;-72
2023/09/13 08:11:41;;;;;;;;;;;16.20;1.00;;;;;;5125800;27;19972;-72
2023/09/13 08:14:07;;;;;;;;;;;16.20;1.00;;;;;;5130604;27;20654;-73
2023/09/13 08:16:33;;;;;;;;;;;16.30;1.00;;;;;;5130430;27;20014;-73
2023/09/13 08:18:58;;;;;;;;;;;16.30;1.00;;;;;;5122026;27;19927;-72
2023/09/13 08:21:24;;;;;;;;;;;16.30;1.00;;;;;;5110167;27;19924;-72
2023/09/13 08:23:49;;;;;;;;;;;16.30;1.00;;;;;;5110193;28;19924;-73
2023/09/13 08:26:16;;;;;;;;;;;16.40;1.00;;;;;;5110314;28;20037;-73
2023/09/13 08:28:42;;;;;;;;;;;16.40;1.00;;;;;;5110434;28;19927;-73
2023/09/13 08:31:07;;;;;;;;;;;16.40;1.00;;;;;;5110652;28;20331;-72
2023/09/13 08:33:33;;;;;;;;;;;16.50;1.00;;;;;;5110212;28;19924;-73
2023/09/13 08:36:01;;;;;;;;;;;16.50;1.00;;;;;;5109463;28;19923;-72
2023/09/13 08:38:27;;;;;;;;;;;16.60;1.00;;;;;;5110757;28;19930;-73
2023/09/13 08:40:54;;;;;;;;;;;16.60;1.00;;;;;;5110484;28;20394;-72
2023/09/13 08:43:20;;;;;;;;;;;16.70;1.00;;;;;;5109671;28;20297;-72
2023/09/13 08:45:46;;;;;;;;;;;16.70;1.00;;;;;;5109741;28;19923;-73
2023/09/13 08:48:12;;;;;;;;;;;16.70;1.00;;;;;;5109526;28;19959;-73
2023/09/13 08:50:37;;;;;;;;;;;16.70;1.00;;;;;;5110521;28;19928;-72
2023/09/13 08:53:03;;;;;;;;;;;16.80;1.00;;;;;;5110291;28;20285;-73
2023/09/13 08:55:29;;;;;;;;;;;16.80;1.00;;;;;;5092275;28;19923;-73
2023/09/13 08:57:56;;;;;;;;;;;16.90;1.00;;;;;;5110345;28;19974;-73
2023/09/13 09:00:23;;;;;;;;;;;16.90;1.00;;;;;;5110031;28;19927;-73
2023/09/13 09:02:50;;;;;;;;;;;16.90;99.90;;;;;;5110728;28;20398;-73
2023/09/13 09:05:17;;;;;;;;;;;16.90;99.90;;;;;;5099211;28;19976;-72
2023/09/13 09:07:44;;;;;;;;;;;16.90;99.90;;;;;;5110146;28;20320;-73
2023/09/13 09:10:12;;;;;;;;;;;16.90;99.90;;;;;;5109884;28;19931;-73
2023/09/13 09:12:40;;;;;;;;;;;16.80;1.00;;;;;;5109908;28;19927;-73
2023/09/13 09:15:07;;;;;;;;;;;16.80;1.00;;;;;;5110056;28;19923;-73
2023/09/13 09:17:33;;;;;;;;;;;16.70;1.00;;;;;;5110327;28;20489;-73
2023/09/13 09:19:59;;;;;;;;;;;16.70;1.00;;;;;;5109972;28;19931;-73
2023/09/13 09:22:24;;;;;;;;;;;16.70;1.00;;;;;;5109736;28;19942;-73
2023/09/13 09:24:50;;;;;;;;;;;16.60;1.00;;;;;;5110196;28;19927;-73
2023/09/13 09:27:16;;;;;;;;;;;16.60;1.00;;;;;;5092497;28;19923;-73
2023/09/13 09:29:42;;;;;;;;;;;16.60;1.00;;;;;;5110702;28;19927;-73
2023/09/13 09:32:08;;;;;;;;;;;16.60;1.00;;;;;;5110067;28;19924;-72
2023/09/13 09:34:38;;;;;;;;;;;16.70;1.00;;;;;;5109933;28;20305;-73
2023/09/13 09:37:07;;;;;;;;;;;16.70;1.00;;;;;;5109482;28;20270;-73
2023/09/13 09:39:36;;;;;;;;;;;16.80;1.00;;;;;;5109953;28;19924;-73
2023/09/13 09:42:01;;;;;;;;;;;16.80;1.00;;;;;;5111479;28;20306;-73
2023/09/13 09:44:28;;;;;;;;;;;16.80;99.90;;;;;;5109179;28;19924;-72
2023/09/13 09:46:53;;;;;;;;;;;16.80;99.90;;;;;;5112072;28;20279;-73
2023/09/13 09:49:19;;;;;;;;;;;16.80;99.90;;;;;;5116366;27;19923;-73
2023/09/13 09:51:44;;;;;;;;;;;16.80;99.90;;;;;;5113942;27;20401;-73
2023/09/13 09:54:10;;;;;;;;;;;16.90;99.90;;;;;;5117987;27;19923;-73
2023/09/13 09:56:36;;;;;;;;;;;17.00;99.90;;;;;;5115471;27;19923;-73
2023/09/13 09:59:02;;;;;;;;;;;17.10;99.90;;;;;;5118008;27;19984;-72
2023/09/13 10:01:28;;;;;;;;;;;17.30;99.90;;;;;;5094029;28;19924;-72
2023/09/13 10:03:55;;;;;;;;;;;17.40;99.90;;;;;;5095377;28;20436;-73
2023/09/13 10:06:20;;;;;;;;;;;17.50;99.90;;;;;;5112796;27;20065;-73
2023/09/13 10:08:46;;;;;;;;;;;17.50;99.90;;;;;;5117244;27;20448;-73
2023/09/13 10:11:13;;;;;;;;;;;17.70;48.60;;;;;;5121155;27;19968;-73
2023/09/13 10:13:39;;;;;;;;;;;17.70;18.40;;;;;;5130359;27;19928;-73
2023/09/13 10:16:08;;;;;;;;;;;17.80;1.00;;;;;;5132789;27;19931;-73
2023/09/13 10:18:38;;;;;;;;;;;17.80;1.00;;;;;;5126589;27;19928;-73
2023/09/13 10:21:06;;;;;;;;;;;17.70;1.00;;;;;;5112637;27;19931;-73
2023/09/13 10:23:37;;;;;;;;;;;17.60;99.90;;;;;;5113134;27;19924;-73
2023/09/13 10:26:03;;;;;;;;;;;17.60;1.00;;;;;;5112332;28;19924;-73
2023/09/13 10:28:31;;;;;;;;;;;17.60;99.90;;;;;;5112031;28;19928;-73
2023/09/13 10:30:58;;;;;;;;;;;17.70;1.00;;;;;;5106986;27;19946;-73
2023/09/13 10:33:25;;;;;;;;;;;17.90;99.90;;;;;;5119452;27;20292;-73
2023/09/13 10:35:54;;;;;;;;;;;18.40;99.90;;;;;;5130188;27;19924;-73
2023/09/13 10:38:26;;;;;;;;;;;19.10;1.00;;;;;;5083340;28;19970;-73
2023/09/13 10:40:59;;;;;;;;;;;20.30;1.00;;;;;;5094622;27;19962;-73
2023/09/13 10:43:27;;;;;;;;;;;21.40;99.90;;;;;;5111805;28;19946;-73
2023/09/13 10:45:52;;;;;;;;;;;22.00;1.00;;;;;;5112627;27;19924;-74
2023/09/13 10:48:18;;;;;;;;;;;22.10;99.90;;;;;;5112069;28;19970;-73
2023/09/13 10:50:44;;;;;;;;;;;22.30;99.70;;;;;;5112530;27;19931;-73
2023/09/13 10:53:11;;;;;;;;;;;22.60;1.00;;;;;;5093366;28;19927;-73
2023/09/13 10:55:37;;;;;;;;;;;22.90;1.00;;;;;;5114264;27;19924;-73
2023/09/13 10:58:03;;;;;;;;;;;23.50;99.90;;;;;;5112220;28;19924;-73
2023/09/13 11:00:31;;;;;;;;;;;23.90;99.90;;;;;;5114362;27;19936;-73
2023/09/13 11:02:57;;;;;;;;;;;23.70;99.90;;;;;;5095282;28;19924;-73
2023/09/13 11:05:23;;;;;;;;;;;23.50;99.90;;;;;;5113248;27;19930;-73
2023/09/13 11:07:49;;;;;;;;;;;23.10;99.90;;;;;;5093103;28;19927;-73
2023/09/13 11:10:16;;;;;;;;;;;22.80;99.90;;;;;;5096900;27;19980;-73
2023/09/13 11:12:51;;;;;;;;;;;22.60;99.90;;;;;;5121224;27;20744;-73
2023/09/13 11:15:24;;;;;;;;;;;22.50;99.90;;;;;;5105881;28;19930;-73
2023/09/13 11:17:53;;;;;;;;;;;22.30;99.90;;;;;;5111400;28;19924;-73
2023/09/13 11:20:24;;;;;;;;;;;22.10;99.90;;;;;;5093872;28;20397;-73
2023/09/13 11:23:01;;;;;;;;;;;22.00;99.90;;;;;;5111979;27;20006;-73
2023/09/13 11:25:33;;;;;;;;;;;21.80;99.90;;;;;;5111041;28;19935;-73
2023/09/13 11:28:02;;;;;;;;;;;21.50;99.90;;;;;;5112080;27;20408;-73
2023/09/13 11:30:45;;;;;;;;;;;21.30;99.90;;;;;;5111721;27;20035;-73
2023/09/13 11:33:10;;;;;;;;;;;21.30;99.90;;;;;;5111336;28;20069;-73
2023/09/13 11:35:37;;;;;;;;;;;21.50;99.90;;;;;;5111666;27;20620;-73
2023/09/13 11:38:03;;;;;;;;;;;21.80;99.90;;;;;;5112308;27;19924;-73
2023/09/13 11:40:29;;;;;;;;;;;22.20;99.90;;;;;;5112002;27;20535;-73
2023/09/13 11:42:55;;;;;;;;;;;22.40;99.90;;;;;;5112450;27;19924;-73
2023/09/13 11:45:20;;;;;;;;;;;22.40;99.90;;;;;;5111907;27;19924;-73
2023/09/13 11:47:49;;;;;;;;;;;22.50;99.90;;;;;;5111863;27;20306;-73
2023/09/13 11:50:16;;;;;;;;;;;22.70;99.90;;;;;;5109370;28;19935;-73
2023/09/13 11:53:00;;;;;;;;;;;23.00;99.90;;;;;;5110498;28;19932;-73
2023/09/13 11:55:26;;;;;;;;;;;23.00;99.90;;;;;;5110578;27;20453;-73
2023/09/13 11:57:52;;;;;;;;;;;22.70;99.90;;;;;;5110725;27;20006;-73
2023/09/13 12:00:22;;;;;;;;;;;22.40;99.90;;;;;;5110818;27;19938;-74
2023/09/13 12:02:48;;;;;;;;;;;22.30;99.90;;;;;;5111210;27;20313;-73
2023/09/13 12:05:15;;;;;;;;;;;22.30;99.90;;;;;;5110483;27;19930;-73
2023/09/13 12:07:40;;;;;;;;;;;22.20;99.90;;;;;;5092171;28;19951;-73
2023/09/13 12:10:06;;;;;;;;;;;21.90;99.90;;;;;;5126296;27;19924;-73
2023/09/13 12:12:39;;;;;;;;;;;21.60;99.90;;;;;;5130323;27;20303;-73
2023/09/13 12:15:05;;;;;;;;;;;21.20;99.90;;;;;;5128975;27;20289;-73
2023/09/13 12:17:39;;;;;;;;;;;20.80;99.90;;;;;;5129899;27;19924;-73
2023/09/13 12:20:05;;;;;;;;;;;20.50;99.90;;;;;;5092946;28;19930;-73
2023/09/13 12:22:37;;;;;;;;;;;20.30;99.90;;;;;;5121498;27;19970;-73
2023/09/13 12:25:04;;;;;;;;;;;20.20;99.90;;;;;;5105323;28;20389;-73
2023/09/13 12:27:30;;;;;;;;;;;20.10;99.90;;;;;;5121789;27;20000;-73
2023/09/13 12:29:55;;;;;;;;;;;19.90;99.90;;;;;;5123112;27;20279;-73
2023/09/13 12:32:21;;;;;;;;;;;19.90;99.90;;;;;;5110354;28;19934;-73
2023/09/13 12:34:47;;;;;;;;;;;19.80;99.90;;;;;;5092023;28;19927;-73
2023/09/13 12:37:13;;;;;;;;;;;19.70;99.90;;;;;;5110917;28;19924;-73
2023/09/13 12:39:39;;;;;;;;;;;19.70;99.90;;;;;;5110574;28;19980;-73
2023/09/13 12:42:06;;;;;;;;;;;19.70;99.90;;;;;;5110224;28;19959;-72
2023/09/13 12:44:32;;;;;;;;;;;19.60;99.90;;;;;;5114523;28;19930;-72
2023/09/13 12:46:58;;;;;;;;;;;19.60;99.90;;;;;;5117169;28;19924;-73
2023/09/13 12:49:24;;;;;;;;;;;19.60;99.90;;;;;;5109347;28;19930;-73
2023/09/13 12:51:51;;;;;;;;;;;19.60;99.90;;;;;;5090561;28;20401;-73
2023/09/13 12:54:16;;;;;;;;;;;19.60;99.90;;;;;;5109276;28;20336;-73
2023/09/13 12:56:42;;;;;;;;;;;19.60;99.90;;;;;;5089591;28;19924;-73
2023/09/13 12:59:08;;;;;;;;;;;19.60;99.90;;;;;;5109566;28;19949;-73
2023/09/13 13:01:35;;;;;;;;;;;19.60;99.90;;;;;;5109341;28;20362;-73
2023/09/13 13:04:06;;;;;;;;;;;19.60;99.90;;;;;;5090228;28;19946;-73
2023/09/13 13:06:36;;;;;;;;;;;19.70;99.90;;;;;;5109722;28;19954;-73
2023/09/13 13:09:06;;;;;;;;;;;19.70;99.90;;;;;;5101236;28;20295;-72
2023/09/13 13:11:40;;;;;;;;;;;19.60;99.90;;;;;;5104248;28;19931;-73
2023/09/13 13:14:17;;;;;;;;;;;19.60;99.90;;;;;;5110326;28;19963;-73
2023/09/13 13:16:43;;;;;;;;;;;19.60;99.90;;;;;;5109704;28;20393;-73
2023/09/13 13:19:08;;;;;;;;;;;19.70;99.90;;;;;;5110170;28;19927;-73
2023/09/13 13:21:34;;;;;;;;;;;19.80;99.90;;;;;;5111268;27;19924;-73
2023/09/13 13:23:59;;;;;;;;;;;19.90;99.90;;;;;;5114388;27;19949;-73
2023/09/13 13:26:25;;;;;;;;;;;20.10;99.90;;;;;;5114120;27;19923;-73
2023/09/13 13:28:51;;;;;;;;;;;20.10;99.90;;;;;;5113399;28;20282;-73
2023/09/13 13:31:20;;;;;;;;;;;20.40;99.90;;;;;;5114810;27;19924;-73
2023/09/13 13:33:46;;;;;;;;;;;20.40;99.90;;;;;;5095973;28;20042;-73
2023/09/13 13:36:12;;;;;;;;;;;20.50;99.90;;;;;;5114140;27;20010;-73
2023/09/13 13:38:40;;;;;;;;;;;20.60;99.90;;;;;;5114059;27;19927;-73
2023/09/13 13:41:06;;;;;;;;;;;20.50;99.90;;;;;;5114854;27;19986;-73
2023/09/13 13:43:33;;;;;;;;;;;20.40;99.90;;;;;;5114286;27;20362;-73
2023/09/13 13:46:02;;;;;;;;;;;20.40;99.90;;;;;;5096728;28;19928;-73
2023/09/13 13:48:29;;;;;;;;;;;20.30;99.90;;;;;;5113568;27;19927;-73
2023/09/13 13:50:54;;;;;;;;;;;20.30;99.90;;;;;;5113847;27;19938;-73
2023/09/13 13:53:20;;;;;;;;;;;20.30;99.90;;;;;;5113329;27;19927;-73
2023/09/13 13:55:46;;;;;;;;;;;20.30;99.90;;;;;;5095268;28;20022;-73
2023/09/13 13:58:11;;;;;;;;;;;20.30;99.90;;;;;;5113571;27;20289;-73
2023/09/13 14:00:37;;;;;;;;;;;20.30;99.90;;;;;;5094373;28;19935;-73
2023/09/13 14:03:02;;;;;;;;;;;20.20;99.90;;;;;;5113506;27;19931;-73
2023/09/13 14:05:28;;;;;;;;;;;20.30;99.90;;;;;;5117243;27;19923;-73
2023/09/13 14:07:54;;;;;;;;;;;20.30;99.90;;;;;;5112946;27;19924;-72
2023/09/13 14:10:19;;;;;;;;;;;20.30;99.90;;;;;;5112504;28;20659;-73
2023/09/13 14:12:45;;;;;;;;;;;20.30;99.90;;;;;;5112738;27;20301;-73
2023/09/13 14:15:10;;;;;;;;;;;20.30;99.90;;;;;;5112792;27;20449;-73
2023/09/13 14:17:37;;;;;;;;;;;20.30;99.90;;;;;;5113148;27;19924;-73
2023/09/13 14:20:03;;;;;;;;;;;20.20;99.90;;;;;;5116638;27;19930;-73
2023/09/13 14:22:28;;;;;;;;;;;20.10;99.90;;;;;;5121307;27;19923;-73